sensor_id;sensor_type;location;lat;lon;timestamp;pressure;altitude;pressure_sealevel;temperature;humidity
75852;BME280;64500;52.632;20.656;2023-08-01T00:02:25;99495.55;;;40.80;20.55
75852;BME280;64500;52.632;20.656;2023-08-01T00:04:54;99492.84;;;40.81;20.57
75852;BME280;64500;52.632;20.656;2023-08-01T00:07:31;99490.53;;;40.87;20.56
75852;BME280;64500;52.632;20.656;2023-08-01T00:10:01;99493.23;;;40.89;20.52
75852;BME280;64500;52.632;20.656;2023-08-01T00:12:29;99489.68;;;40.95;20.56
75852;BME280;64500;52.632;20.656;2023-08-01T00:15:09;99489.48;;;41.12;20.46
75852;BME280;64500;52.632;20.656;2023-08-01T00:17:36;99487.80;;;41.07;20.48
75852;BME280;64500;52.632;20.656;2023-08-01T00:20:12;99487.11;;;41.11;20.38
75852;BME280;64500;52.632;20.656;2023-08-01T00:22:45;99486.00;;;41.07;20.33
75852;BME280;64500;52.632;20.656;2023-08-01T00:25:22;99480.55;;;41.03;20.48
75852;BME280;64500;52.632;20.656;2023-08-01T00:30:35;99479.80;;;41.11;20.27
75852;BME280;64500;52.632;20.656;2023-08-01T00:33:11;99474.43;;;41.06;20.47
75852;BME280;64500;52.632;20.656;2023-08-01T00:35:58;99474.71;;;41.33;20.05
75852;BME280;64500;52.632;20.656;2023-08-01T00:38:26;99471.67;;;41.44;20.01
75852;BME280;64500;52.632;20.656;2023-08-01T00:40:54;99466.70;;;41.47;19.93
75852;BME280;64500;52.632;20.656;2023-08-01T00:49:02;99460.86;;;41.48;19.94
75852;BME280;64500;52.632;20.656;2023-08-01T00:51:35;99453.94;;;41.46;19.94
75852;BME280;64500;52.632;20.656;2023-08-01T00:54:03;99453.41;;;41.52;20.13
75852;BME280;64500;52.632;20.656;2023-08-01T00:56:33;99451.56;;;41.57;19.93
75852;BME280;64500;52.632;20.656;2023-08-01T00:59:01;99447.20;;;41.50;19.88
75852;BME280;64500;52.632;20.656;2023-08-01T01:01:28;99445.20;;;41.49;19.81
75852;BME280;64500;52.632;20.656;2023-08-01T01:03:56;99443.09;;;41.66;19.79
75852;BME280;64500;52.632;20.656;2023-08-01T01:09:52;99438.64;;;41.74;19.73
75852;BME280;64500;52.632;20.656;2023-08-01T01:12:22;99436.11;;;41.65;19.84
75852;BME280;64500;52.632;20.656;2023-08-01T01:14:52;99432.60;;;41.65;19.80
75852;BME280;64500;52.632;20.656;2023-08-01T01:17:22;99431.12;;;41.72;19.60
75852;BME280;64500;52.632;20.656;2023-08-01T01:19:49;99435.23;;;41.74;19.56
75852;BME280;64500;52.632;20.656;2023-08-01T01:22:18;99433.21;;;41.76;19.57
75852;BME280;64500;52.632;20.656;2023-08-01T01:24:54;99434.40;;;41.79;19.48
75852;BME280;64500;52.632;20.656;2023-08-01T01:27:32;99433.13;;;41.80;19.42
75852;BME280;64500;52.632;20.656;2023-08-01T01:30:10;99429.20;;;41.64;19.64
75852;BME280;64500;52.632;20.656;2023-08-01T01:35:37;99423.77;;;41.64;19.57
75852;BME280;64500;52.632;20.656;2023-08-01T01:38:04;99417.44;;;41.61;19.51
75852;BME280;64500;52.632;20.656;2023-08-01T01:43:50;99402.20;;;41.63;19.60
75852;BME280;64500;52.632;20.656;2023-08-01T01:46:17;99398.69;;;41.61;19.49
75852;BME280;64500;52.632;20.656;2023-08-01T01:48:46;99394.23;;;41.53;19.55
75852;BME280;64500;52.632;20.656;2023-08-01T01:51:13;99386.27;;;41.50;19.62
75852;BME280;64500;52.632;20.656;2023-08-01T01:53:45;99384.22;;;41.45;19.53
75852;BME280;64500;52.632;20.656;2023-08-01T01:56:15;99377.05;;;41.47;19.70
75852;BME280;64500;52.632;20.656;2023-08-01T01:58:43;99373.70;;;41.53;19.73
75852;BME280;64500;52.632;20.656;2023-08-01T02:01:10;99375.38;;;41.54;19.73
75852;BME280;64500;52.632;20.656;2023-08-01T02:03:46;99368.17;;;41.53;19.67
75852;BME280;64500;52.632;20.656;2023-08-01T02:06:17;99368.17;;;41.57;19.70
75852;BME280;64500;52.632;20.656;2023-08-01T02:08:46;99364.22;;;41.59;19.54
75852;BME280;64500;52.632;20.656;2023-08-01T02:11:19;99360.06;;;41.67;19.46
75852;BME280;64500;52.632;20.656;2023-08-01T02:13:49;99353.90;;;41.69;19.60
75852;BME280;64500;52.632;20.656;2023-08-01T02:16:32;99346.78;;;41.71;19.29
75852;BME280;64500;52.632;20.656;2023-08-01T02:19:05;99342.83;;;41.69;19.32
75852;BME280;64500;52.632;20.656;2023-08-01T02:21:48;99340.52;;;41.74;19.29
75852;BME280;64500;52.632;20.656;2023-08-01T02:24:15;99339.60;;;41.63;19.35
75852;BME280;64500;52.632;20.656;2023-08-01T02:26:42;99340.81;;;41.49;19.32
75852;BME280;64500;52.632;20.656;2023-08-01T02:29:10;99338.35;;;41.47;19.42
75852;BME280;64500;52.632;20.656;2023-08-01T02:31:37;99336.98;;;41.44;19.41
75852;BME280;64500;52.632;20.656;2023-08-01T02:34:04;99334.23;;;41.42;19.53
75852;BME280;64500;52.632;20.656;2023-08-01T02:36:31;99325.24;;;41.37;19.52
75852;BME280;64500;52.632;20.656;2023-08-01T02:39:05;99324.04;;;41.33;19.44
75852;BME280;64500;52.632;20.656;2023-08-01T02:41:34;99322.11;;;41.22;19.47
75852;BME280;64500;52.632;20.656;2023-08-01T02:47:00;99316.19;;;40.94;19.38
75852;BME280;64500;52.632;20.656;2023-08-01T02:49:36;99311.73;;;40.82;19.53
75852;BME280;64500;52.632;20.656;2023-08-01T02:52:16;99307.86;;;40.65;19.54
75852;BME280;64500;52.632;20.656;2023-08-01T02:54:46;99309.02;;;40.51;19.52
75852;BME280;64500;52.632;20.656;2023-08-01T02:57:14;99307.96;;;40.38;19.80
75852;BME280;64500;52.632;20.656;2023-08-01T02:59:52;99297.80;;;40.28;19.92
75852;BME280;64500;52.632;20.656;2023-08-01T03:02:23;99299.43;;;40.31;19.97
75852;BME280;64500;52.632;20.656;2023-08-01T03:05:11;99293.48;;;40.39;20.15
75852;BME280;64500;52.632;20.656;2023-08-01T03:07:41;99295.28;;;40.54;19.79
75852;BME280;64500;52.632;20.656;2023-08-01T03:10:08;99292.16;;;40.67;19.91
75852;BME280;64500;52.632;20.656;2023-08-01T03:12:45;99290.22;;;40.77;19.79
75852;BME280;64500;52.632;20.656;2023-08-01T03:15:16;99284.85;;;40.91;20.05
75852;BME280;64500;52.632;20.656;2023-08-01T03:17:43;99284.41;;;41.12;19.91
75852;BME280;64500;52.632;20.656;2023-08-01T03:20:13;99279.75;;;41.18;19.85
75852;BME280;64500;52.632;20.656;2023-08-01T03:22:40;99279.51;;;41.29;19.83
75852;BME280;64500;52.632;20.656;2023-08-01T03:25:11;99277.59;;;41.41;19.86
75852;BME280;64500;52.632;20.656;2023-08-01T03:27:54;99274.75;;;41.45;19.69
75852;BME280;64500;52.632;20.656;2023-08-01T03:30:50;99271.16;;;41.60;19.47
75852;BME280;64500;52.632;20.656;2023-08-01T03:33:26;99271.41;;;41.75;19.36
75852;BME280;64500;52.632;20.656;2023-08-01T03:35:56;99268.08;;;41.87;19.47
75852;BME280;64500;52.632;20.656;2023-08-01T03:38:27;99259.67;;;41.92;19.47
75852;BME280;64500;52.632;20.656;2023-08-01T03:43:37;99256.36;;;41.96;19.50
75852;BME280;64500;52.632;20.656;2023-08-01T03:46:07;99255.13;;;42.04;19.37
75852;BME280;64500;52.632;20.656;2023-08-01T03:48:37;99255.98;;;42.24;19.27
75852;BME280;64500;52.632;20.656;2023-08-01T03:51:19;99249.23;;;42.43;19.30
75852;BME280;64500;52.632;20.656;2023-08-01T03:54:38;99248.87;;;42.57;19.10
75852;BME280;64500;52.632;20.656;2023-08-01T03:57:24;99249.21;;;42.78;18.97
75852;BME280;64500;52.632;20.656;2023-08-01T04:03:04;99247.02;;;43.12;18.79
75852;BME280;64500;52.632;20.656;2023-08-01T04:05:43;99245.08;;;43.19;18.82
75852;BME280;64500;52.632;20.656;2023-08-01T04:08:14;99244.36;;;43.23;18.69
75852;BME280;64500;52.632;20.656;2023-08-01T04:10:43;99245.31;;;43.32;18.40
75852;BME280;64500;52.632;20.656;2023-08-01T04:13:19;99246.75;;;43.32;18.62
75852;BME280;64500;52.632;20.656;2023-08-01T04:15:50;99244.97;;;43.32;18.65
75852;BME280;64500;52.632;20.656;2023-08-01T04:18:30;99239.67;;;43.21;18.56
75852;BME280;64500;52.632;20.656;2023-08-01T04:21:00;99237.82;;;43.09;18.78
75852;BME280;64500;52.632;20.656;2023-08-01T04:23:38;99232.58;;;43.35;18.52
75852;BME280;64500;52.632;20.656;2023-08-01T04:26:26;99231.85;;;43.37;18.55
75852;BME280;64500;52.632;20.656;2023-08-01T04:29:17;99234.14;;;43.43;18.47
75852;BME280;64500;52.632;20.656;2023-08-01T04:31:45;99239.25;;;43.50;18.48
75852;BME280;64500;52.632;20.656;2023-08-01T04:34:26;99240.54;;;43.60;18.29
75852;BME280;64500;52.632;20.656;2023-08-01T04:37:16;99238.86;;;43.67;18.52
75852;BME280;64500;52.632;20.656;2023-08-01T04:39:53;99231.98;;;43.77;18.19
75852;BME280;64500;52.632;20.656;2023-08-01T04:42:45;99226.79;;;43.94;18.17
75852;BME280;64500;52.632;20.656;2023-08-01T04:45:15;99224.55;;;44.13;18.20
75852;BME280;64500;52.632;20.656;2023-08-01T04:48:08;99214.63;;;44.06;18.18
75852;BME280;64500;52.632;20.656;2023-08-01T04:51:05;99211.61;;;44.06;18.19
75852;BME280;64500;52.632;20.656;2023-08-01T04:53:40;99209.95;;;44.14;18.05
75852;BME280;64500;52.632;20.656;2023-08-01T04:56:19;99204.83;;;44.46;17.87
75852;BME280;64500;52.632;20.656;2023-08-01T04:58:58;99198.41;;;44.32;17.85
75852;BME280;64500;52.632;20.656;2023-08-01T05:01:29;99194.48;;;44.39;18.04
75852;BME280;64500;52.632;20.656;2023-08-01T05:03:56;99192.45;;;44.41;17.98
75852;BME280;64500;52.632;20.656;2023-08-01T05:06:24;99190.58;;;44.33;17.75
75852;BME280;64500;52.632;20.656;2023-08-01T05:08:51;99186.25;;;44.30;17.92
75852;BME280;64500;52.632;20.656;2023-08-01T05:11:22;99185.70;;;44.19;18.09
75852;BME280;64500;52.632;20.656;2023-08-01T05:13:49;99189.15;;;44.31;17.89
75852;BME280;64500;52.632;20.656;2023-08-01T05:16:17;99189.91;;;44.34;17.93
75852;BME280;64500;52.632;20.656;2023-08-01T05:19:01;99189.19;;;44.32;17.86
75852;BME280;64500;52.632;20.656;2023-08-01T05:21:52;99190.09;;;44.21;17.94
75852;BME280;64500;52.632;20.656;2023-08-01T05:24:52;99191.66;;;44.31;17.82
75852;BME280;64500;52.632;20.656;2023-08-01T05:27:25;99194.77;;;44.39;17.73
75852;BME280;64500;52.632;20.656;2023-08-01T05:29:58;99193.59;;;44.48;17.73
75852;BME280;64500;52.632;20.656;2023-08-01T05:35:40;99189.02;;;44.43;17.61
75852;BME280;64500;52.632;20.656;2023-08-01T05:38:10;99187.52;;;44.54;17.30
75852;BME280;64500;52.632;20.656;2023-08-01T05:40:51;99188.70;;;44.77;17.16
75852;BME280;64500;52.632;20.656;2023-08-01T05:43:27;99184.80;;;44.59;17.60
75852;BME280;64500;52.632;20.656;2023-08-01T05:45:57;99187.49;;;44.56;17.63
75852;BME280;64500;52.632;20.656;2023-08-01T05:48:47;99187.44;;;44.64;17.26
75852;BME280;64500;52.632;20.656;2023-08-01T05:51:18;99183.65;;;44.63;17.41
75852;BME280;64500;52.632;20.656;2023-08-01T05:56:37;99171.88;;;44.43;17.45
75852;BME280;64500;52.632;20.656;2023-08-01T05:59:17;99170.88;;;44.44;17.60
75852;BME280;64500;52.632;20.656;2023-08-01T06:01:55;99164.48;;;44.62;17.22
75852;BME280;64500;52.632;20.656;2023-08-01T06:04:43;99166.44;;;44.92;17.43
75852;BME280;64500;52.632;20.656;2023-08-01T06:07:17;99165.77;;;45.17;17.17
75852;BME280;64500;52.632;20.656;2023-08-01T06:09:53;99162.48;;;45.56;17.30
75852;BME280;64500;52.632;20.656;2023-08-01T06:12:26;99160.54;;;46.06;16.99
75852;BME280;64500;52.632;20.656;2023-08-01T06:18:08;99156.92;;;46.90;16.65
75852;BME280;64500;52.632;20.656;2023-08-01T06:20:46;99159.63;;;47.86;16.65
75852;BME280;64500;52.632;20.656;2023-08-01T06:23:24;99155.34;;;48.57;15.97
75852;BME280;64500;52.632;20.656;2023-08-01T06:25:54;99158.61;;;48.99;15.97
75852;BME280;64500;52.632;20.656;2023-08-01T06:28:46;99159.29;;;49.22;15.45
75852;BME280;64500;52.632;20.656;2023-08-01T06:34:33;99156.55;;;49.42;14.80
75852;BME280;64500;52.632;20.656;2023-08-01T06:37:10;99157.21;;;49.29;14.71
75852;BME280;64500;52.632;20.656;2023-08-01T06:39:58;99150.10;;;49.14;14.62
75852;BME280;64500;52.632;20.656;2023-08-01T06:42:29;99147.72;;;49.02;14.92
75852;BME280;64500;52.632;20.656;2023-08-01T06:45:25;99147.95;;;49.10;14.93
75852;BME280;64500;52.632;20.656;2023-08-01T06:47:58;99147.69;;;49.16;14.65
75852;BME280;64500;52.632;20.656;2023-08-01T06:50:31;99148.20;;;49.31;14.42
75852;BME280;64500;52.632;20.656;2023-08-01T06:53:05;99144.13;;;49.42;14.45
75852;BME280;64500;52.632;20.656;2023-08-01T06:56:01;99141.70;;;49.56;14.57
75852;BME280;64500;52.632;20.656;2023-08-01T06:58:27;99137.63;;;49.71;14.43
75852;BME280;64500;52.632;20.656;2023-08-01T07:00:55;99136.51;;;49.97;14.30
75852;BME280;64500;52.632;20.656;2023-08-01T07:03:35;99134.58;;;50.34;14.08
75852;BME280;64500;52.632;20.656;2023-08-01T07:06:25;99126.91;;;50.72;14.18
75852;BME280;64500;52.632;20.656;2023-08-01T07:09:08;99120.73;;;50.96;13.86
75852;BME280;64500;52.632;20.656;2023-08-01T07:11:41;99117.58;;;51.14;13.80
75852;BME280;64500;52.632;20.656;2023-08-01T07:14:09;99117.12;;;51.45;13.83
75852;BME280;64500;52.632;20.656;2023-08-01T07:16:46;99119.02;;;51.70;13.46
75852;BME280;64500;52.632;20.656;2023-08-01T07:19:17;99113.75;;;52.05;13.42
75852;BME280;64500;52.632;20.656;2023-08-01T07:21:58;99110.49;;;52.37;13.48
75852;BME280;64500;52.632;20.656;2023-08-01T07:24:43;99113.33;;;52.77;13.02
75852;BME280;64500;52.632;20.656;2023-08-01T07:27:17;99113.14;;;52.82;12.40
75852;BME280;64500;52.632;20.656;2023-08-01T07:29:55;99112.33;;;52.96;12.80
75852;BME280;64500;52.632;20.656;2023-08-01T07:32:36;99105.07;;;52.99;12.12
75852;BME280;64500;52.632;20.656;2023-08-01T07:35:21;99099.80;;;52.81;11.95
75852;BME280;64500;52.632;20.656;2023-08-01T07:37:48;99097.44;;;52.69;11.98
75852;BME280;64500;52.632;20.656;2023-08-01T07:40:17;99087.51;;;52.69;11.87
75852;BME280;64500;52.632;20.656;2023-08-01T07:42:45;99084.57;;;52.71;11.87
75852;BME280;64500;52.632;20.656;2023-08-01T07:45:15;99084.98;;;52.69;11.87
75852;BME280;64500;52.632;20.656;2023-08-01T07:47:43;99082.29;;;52.68;11.89
75852;BME280;64500;52.632;20.656;2023-08-01T07:50:23;99078.89;;;52.62;11.76
75852;BME280;64500;52.632;20.656;2023-08-01T07:52:53;99076.52;;;52.54;12.01
75852;BME280;64500;52.632;20.656;2023-08-01T07:55:32;99077.81;;;52.37;11.88
75852;BME280;64500;52.632;20.656;2023-08-01T07:58:03;99076.63;;;52.55;12.04
75852;BME280;64500;52.632;20.656;2023-08-01T08:00:51;99074.82;;;53.08;11.98
75852;BME280;64500;52.632;20.656;2023-08-01T08:03:27;99070.56;;;53.80;11.61
75852;BME280;64500;52.632;20.656;2023-08-01T08:06:00;99068.48;;;54.24;11.51
75852;BME280;64500;52.632;20.656;2023-08-01T08:08:30;99068.52;;;54.46;11.25
75852;BME280;64500;52.632;20.656;2023-08-01T08:11:01;99064.33;;;54.54;11.21
75852;BME280;64500;52.632;20.656;2023-08-01T08:13:41;99067.77;;;54.24;11.03
75852;BME280;64500;52.632;20.656;2023-08-01T08:16:11;99067.49;;;54.20;11.23
75852;BME280;64500;52.632;20.656;2023-08-01T08:18:41;99068.81;;;54.13;10.86
75852;BME280;64500;52.632;20.656;2023-08-01T08:21:11;99065.66;;;53.71;10.60
75852;BME280;64500;52.632;20.656;2023-08-01T08:23:46;99068.29;;;53.30;11.02
75852;BME280;64500;52.632;20.656;2023-08-01T08:26:19;99062.42;;;53.07;11.03
75852;BME280;64500;52.632;20.656;2023-08-01T08:28:56;99063.48;;;52.73;10.91
75852;BME280;64500;52.632;20.656;2023-08-01T08:31:24;99065.33;;;52.37;11.21
75852;BME280;64500;52.632;20.656;2023-08-01T08:33:51;99060.56;;;52.08;11.38
75852;BME280;64500;52.632;20.656;2023-08-01T08:36:18;99063.29;;;51.83;11.36
75852;BME280;64500;52.632;20.656;2023-08-01T08:38:45;99066.98;;;51.43;11.52
75852;BME280;64500;52.632;20.656;2023-08-01T08:41:21;99066.27;;;51.22;11.69
75852;BME280;64500;52.632;20.656;2023-08-01T08:43:48;99067.73;;;50.96;11.83
75852;BME280;64500;52.632;20.656;2023-08-01T08:46:32;99057.81;;;50.73;11.92
75852;BME280;64500;52.632;20.656;2023-08-01T08:49:23;99061.48;;;50.45;12.18
75852;BME280;64500;52.632;20.656;2023-08-01T08:51:56;99060.58;;;50.72;12.26
75852;BME280;64500;52.632;20.656;2023-08-01T08:54:29;99056.74;;;51.08;12.28
75852;BME280;64500;52.632;20.656;2023-08-01T08:56:58;99060.80;;;51.65;12.36
75852;BME280;64500;52.632;20.656;2023-08-01T08:59:46;99055.38;;;52.12;12.18
75852;BME280;64500;52.632;20.656;2023-08-01T09:02:27;99047.71;;;52.51;12.00
75852;BME280;64500;52.632;20.656;2023-08-01T09:04:54;99053.06;;;52.78;11.53
75852;BME280;64500;52.632;20.656;2023-08-01T09:07:29;99051.11;;;53.08;11.70
75852;BME280;64500;52.632;20.656;2023-08-01T09:09:59;99055.48;;;53.44;11.70
75852;BME280;64500;52.632;20.656;2023-08-01T09:12:34;99054.72;;;53.56;11.53
75852;BME280;64500;52.632;20.656;2023-08-01T09:15:10;99049.66;;;53.77;11.40
75852;BME280;64500;52.632;20.656;2023-08-01T09:17:47;99044.73;;;53.77;10.86
75852;BME280;64500;52.632;20.656;2023-08-01T09:20:14;99037.44;;;53.71;11.18
75852;BME280;64500;52.632;20.656;2023-08-01T09:22:47;99036.70;;;53.79;10.86
75852;BME280;64500;52.632;20.656;2023-08-01T09:25:15;99038.76;;;53.93;11.08
75852;BME280;64500;52.632;20.656;2023-08-01T09:27:42;99038.61;;;54.16;11.41
75852;BME280;64500;52.632;20.656;2023-08-01T09:30:14;99039.55;;;54.39;11.24
75852;BME280;64500;52.632;20.656;2023-08-01T09:32:52;99035.52;;;54.49;11.10
75852;BME280;64500;52.632;20.656;2023-08-01T09:35:25;99036.40;;;54.45;11.09
75852;BME280;64500;52.632;20.656;2023-08-01T09:37:56;99038.83;;;54.64;10.89
75852;BME280;64500;52.632;20.656;2023-08-01T09:40:40;99034.80;;;54.61;10.63
75852;BME280;64500;52.632;20.656;2023-08-01T09:43:12;99031.24;;;54.89;10.65
75852;BME280;64500;52.632;20.656;2023-08-01T09:45:50;99025.94;;;54.97;10.51
75852;BME280;64500;52.632;20.656;2023-08-01T09:48:27;99021.08;;;55.03;10.64
75852;BME280;64500;52.632;20.656;2023-08-01T09:51:11;99022.30;;;54.91;10.26
75852;BME280;64500;52.632;20.656;2023-08-01T09:53:50;99020.75;;;54.60;10.29
75852;BME280;64500;52.632;20.656;2023-08-01T09:56:24;99022.76;;;53.98;10.22
75852;BME280;64500;52.632;20.656;2023-08-01T09:58:55;99021.55;;;53.56;10.97
75852;BME280;64500;52.632;20.656;2023-08-01T10:01:26;99022.80;;;53.24;10.93
75852;BME280;64500;52.632;20.656;2023-08-01T10:04:07;99021.52;;;52.82;10.94
75852;BME280;64500;52.632;20.656;2023-08-01T10:06:40;99020.63;;;52.33;11.02
75852;BME280;64500;52.632;20.656;2023-08-01T10:09:37;99022.92;;;51.99;11.41
75852;BME280;64500;52.632;20.656;2023-08-01T10:12:29;99023.04;;;51.77;11.47
75852;BME280;64500;52.632;20.656;2023-08-01T10:14:55;99020.39;;;51.48;11.72
75852;BME280;64500;52.632;20.656;2023-08-01T10:17:37;99031.03;;;51.28;11.92
75852;BME280;64500;52.632;20.656;2023-08-01T10:20:16;99026.58;;;50.95;12.22
75852;BME280;64500;52.632;20.656;2023-08-01T10:23:06;99029.05;;;50.60;12.44
75852;BME280;64500;52.632;20.656;2023-08-01T10:25:39;99031.30;;;50.28;12.80
75852;BME280;64500;52.632;20.656;2023-08-01T10:30:47;99031.83;;;50.05;13.43
75852;BME280;64500;52.632;20.656;2023-08-01T10:33:18;99037.27;;;49.97;13.25
75852;BME280;64500;52.632;20.656;2023-08-01T10:36:14;99042.55;;;49.72;13.40
75852;BME280;64500;52.632;20.656;2023-08-01T10:38:44;99040.55;;;49.02;14.09
75852;BME280;64500;52.632;20.656;2023-08-01T10:41:41;99038.15;;;48.59;13.79
75852;BME280;64500;52.632;20.656;2023-08-01T10:44:13;99028.60;;;48.17;14.62
75852;BME280;64500;52.632;20.656;2023-08-01T10:46:58;99030.15;;;48.18;14.71
75852;BME280;64500;52.632;20.656;2023-08-01T10:49:40;99027.23;;;48.34;14.75
75852;BME280;64500;52.632;20.656;2023-08-01T10:52:43;99030.20;;;48.52;14.97
75852;BME280;64500;52.632;20.656;2023-08-01T10:55:13;99026.95;;;48.68;14.87
75852;BME280;64500;52.632;20.656;2023-08-01T10:57:49;99025.86;;;48.88;15.32
75852;BME280;64500;52.632;20.656;2023-08-01T11:03:38;99023.66;;;49.37;15.47
75852;BME280;64500;52.632;20.656;2023-08-01T11:06:13;99021.66;;;49.64;15.38
75852;BME280;64500;52.632;20.656;2023-08-01T11:08:44;99017.31;;;49.92;15.45
75852;BME280;64500;52.632;20.656;2023-08-01T11:11:18;99018.86;;;50.19;15.34
75852;BME280;64500;52.632;20.656;2023-08-01T11:13:54;99015.91;;;50.50;15.20
75852;BME280;64500;52.632;20.656;2023-08-01T11:16:37;99016.94;;;51.00;15.41
75852;BME280;64500;52.632;20.656;2023-08-01T11:19:28;99008.38;;;51.40;15.26
75852;BME280;64500;52.632;20.656;2023-08-01T11:22:08;99006.83;;;51.94;15.04
75852;BME280;64500;52.632;20.656;2023-08-01T11:24:51;99005.85;;;52.37;14.97
75852;BME280;64500;52.632;20.656;2023-08-01T11:27:25;99002.92;;;52.64;14.78
75852;BME280;64500;52.632;20.656;2023-08-01T11:29:58;99003.52;;;52.92;14.46
75852;BME280;64500;52.632;20.656;2023-08-01T11:32:36;99003.48;;;53.13;14.29
75852;BME280;64500;52.632;20.656;2023-08-01T11:35:04;99001.34;;;53.17;14.24
75852;BME280;64500;52.632;20.656;2023-08-01T11:37:50;98996.46;;;53.11;14.07
75852;BME280;64500;52.632;20.656;2023-08-01T11:40:26;98996.45;;;53.01;14.04
75852;BME280;64500;52.632;20.656;2023-08-01T11:43:07;98996.17;;;52.96;13.78
75852;BME280;64500;52.632;20.656;2023-08-01T11:45:37;98993.38;;;53.01;14.10
75852;BME280;64500;52.632;20.656;2023-08-01T11:48:28;98994.14;;;53.06;13.66
75852;BME280;64500;52.632;20.656;2023-08-01T11:50:59;98990.46;;;52.87;13.82
75852;BME280;64500;52.632;20.656;2023-08-01T11:53:39;98980.48;;;52.60;13.67
75852;BME280;64500;52.632;20.656;2023-08-01T11:56:27;98976.10;;;52.45;13.80
75852;BME280;64500;52.632;20.656;2023-08-01T11:59:21;98968.38;;;53.01;13.94
75852;BME280;64500;52.632;20.656;2023-08-01T12:01:57;98962.53;;;53.43;14.01
75852;BME280;64500;52.632;20.656;2023-08-01T12:04:32;98963.63;;;53.54;13.56
75852;BME280;64500;52.632;20.656;2023-08-01T12:10:03;98948.98;;;54.35;13.39
75852;BME280;64500;52.632;20.656;2023-08-01T12:12:44;98948.59;;;54.47;13.17
75852;BME280;64500;52.632;20.656;2023-08-01T12:15:14;98946.60;;;54.31;13.02
75852;BME280;64500;52.632;20.656;2023-08-01T12:17:44;98938.27;;;53.92;12.92
75852;BME280;64500;52.632;20.656;2023-08-01T12:20:15;98936.63;;;53.71;12.35
75852;BME280;64500;52.632;20.656;2023-08-01T12:22:48;98933.13;;;53.73;12.71
75852;BME280;64500;52.632;20.656;2023-08-01T12:25:25;98924.16;;;53.85;12.52
75852;BME280;64500;52.632;20.656;2023-08-01T12:27:55;98929.23;;;53.78;12.32
75852;BME280;64500;52.632;20.656;2023-08-01T12:30:23;98922.91;;;53.73;12.21
75852;BME280;64500;52.632;20.656;2023-08-01T12:33:10;98920.66;;;53.81;12.13
75852;BME280;64500;52.632;20.656;2023-08-01T12:35:41;98910.20;;;53.81;12.17
75852;BME280;64500;52.632;20.656;2023-08-01T12:38:09;98902.21;;;53.57;12.41
75852;BME280;64500;52.632;20.656;2023-08-01T12:40:46;98902.20;;;53.38;12.16
75852;BME280;64500;52.632;20.656;2023-08-01T12:43:24;98899.49;;;53.29;12.17
75852;BME280;64500;52.632;20.656;2023-08-01T12:45:54;98893.73;;;53.03;12.14
75852;BME280;64500;52.632;20.656;2023-08-01T12:48:32;98892.05;;;53.09;12.59
75852;BME280;64500;52.632;20.656;2023-08-01T12:51:09;98887.31;;;53.12;12.31
75852;BME280;64500;52.632;20.656;2023-08-01T12:53:44;98891.60;;;53.00;12.36
75852;BME280;64500;52.632;20.656;2023-08-01T12:56:20;98896.39;;;53.03;12.35
75852;BME280;64500;52.632;20.656;2023-08-01T12:58:54;98893.31;;;52.90;12.50
75852;BME280;64500;52.632;20.656;2023-08-01T13:01:26;98895.07;;;52.63;12.43
75852;BME280;64500;52.632;20.656;2023-08-01T13:03:58;98896.95;;;52.59;12.63
75852;BME280;64500;52.632;20.656;2023-08-01T13:06:32;98899.30;;;52.95;12.64
75852;BME280;64500;52.632;20.656;2023-08-01T13:09:08;98894.45;;;53.15;12.61
75852;BME280;64500;52.632;20.656;2023-08-01T13:11:47;98889.39;;;53.17;12.74
75852;BME280;64500;52.632;20.656;2023-08-01T13:14:18;98889.23;;;53.06;12.31
75852;BME280;64500;52.632;20.656;2023-08-01T13:16:48;98890.65;;;52.83;12.78
75852;BME280;64500;52.632;20.656;2023-08-01T13:19:18;98892.31;;;52.77;12.61
75852;BME280;64500;52.632;20.656;2023-08-01T13:21:56;98891.52;;;52.82;12.59
75852;BME280;64500;52.632;20.656;2023-08-01T13:24:26;98883.23;;;53.09;12.76
75852;BME280;64500;52.632;20.656;2023-08-01T13:27:02;98882.96;;;53.15;12.43
75852;BME280;64500;52.632;20.656;2023-08-01T13:29:52;98868.96;;;53.05;12.29
75852;BME280;64500;52.632;20.656;2023-08-01T13:32:23;98866.88;;;52.83;12.44
75852;BME280;64500;52.632;20.656;2023-08-01T13:34:51;98865.69;;;52.71;12.49
75852;BME280;64500;52.632;20.656;2023-08-01T13:37:24;98861.89;;;52.65;12.53
75852;BME280;64500;52.632;20.656;2023-08-01T13:39:58;98860.53;;;52.79;12.75
75852;BME280;64500;52.632;20.656;2023-08-01T13:42:36;98863.37;;;52.84;12.52
75852;BME280;64500;52.632;20.656;2023-08-01T13:45:24;98861.52;;;52.73;12.71
75852;BME280;64500;52.632;20.656;2023-08-01T13:47:54;98859.02;;;52.61;12.76
75852;BME280;64500;52.632;20.656;2023-08-01T13:50:29;98847.73;;;51.29;13.45
75852;BME280;64500;52.632;20.656;2023-08-01T13:53:00;98839.37;;;50.91;13.81
75852;BME280;64500;52.632;20.656;2023-08-01T13:55:48;98843.69;;;50.71;13.79
75852;BME280;64500;52.632;20.656;2023-08-01T13:58:26;98839.29;;;50.37;13.78
75852;BME280;64500;52.632;20.656;2023-08-01T14:00:54;98832.67;;;50.09;13.60
75852;BME280;64500;52.632;20.656;2023-08-01T14:03:24;98835.57;;;49.98;14.08
75852;BME280;64500;52.632;20.656;2023-08-01T14:05:54;98828.71;;;50.04;14.16
75852;BME280;64500;52.632;20.656;2023-08-01T14:08:27;98824.42;;;49.92;14.04
75852;BME280;64500;52.632;20.656;2023-08-01T14:11:00;98826.95;;;49.87;14.57
75852;BME280;64500;52.632;20.656;2023-08-01T14:13:39;98825.99;;;49.95;14.23
75852;BME280;64500;52.632;20.656;2023-08-01T14:16:22;98827.91;;;49.98;14.22
75852;BME280;64500;52.632;20.656;2023-08-01T14:19:26;98824.76;;;49.93;14.29
75852;BME280;64500;52.632;20.656;2023-08-01T14:22:00;98822.33;;;49.90;14.25